sensor_id;sensor_type;location;lat;lon;timestamp;P1;durP1;ratioP1;P2;durP2;ratioP2
75454;SDS011;64035;48.358;2.122;2022-11-15T00:00:58;12.15;;;3.95;;
75454;SDS011;64035;48.358;2.122;2022-11-15T00:01:58;11.65;;;4.55;;
75454;SDS011;64035;48.358;2.122;2022-11-15T00:03:06;12.93;;;4.28;;
75454;SDS011;64035;48.358;2.122;2022-11-15T00:04:07;9.90;;;3.97;;
75454;SDS011;64035;48.358;2.122;2022-11-15T00:05:10;10.07;;;3.60;;
75454;SDS011;64035;48.358;2.122;2022-11-15T00:06:10;10.05;;;3.92;;
75454;SDS011;64035;48.358;2.122;2022-11-15T00:07:11;11.88;;;3.45;;
75454;SDS011;64035;48.358;2.122;2022-11-15T00:08:28;10.52;;;3.45;;
75454;SDS011;64035;48.358;2.122;2022-11-15T00:09:34;9.00;;;3.15;;
75454;SDS011;64035;48.358;2.122;2022-11-15T00:10:37;7.47;;;2.78;;
75454;SDS011;64035;48.358;2.122;2022-11-15T00:11:45;8.55;;;2.80;;
75454;SDS011;64035;48.358;2.122;2022-11-15T00:12:45;8.63;;;2.63;;
75454;SDS011;64035;48.358;2.122;2022-11-15T00:13:49;7.68;;;2.65;;
75454;SDS011;64035;48.358;2.122;2022-11-15T00:14:51;8.80;;;2.50;;
75454;SDS011;64035;48.358;2.122;2022-11-15T00:15:52;9.60;;;3.03;;
75454;SDS011;64035;48.358;2.122;2022-11-15T00:16:56;8.25;;;2.75;;
75454;SDS011;64035;48.358;2.122;2022-11-15T00:17:59;7.63;;;2.70;;
75454;SDS011;64035;48.358;2.122;2022-11-15T00:19:00;7.65;;;2.85;;
75454;SDS011;64035;48.358;2.122;2022-11-15T00:20:03;8.95;;;2.97;;
75454;SDS011;64035;48.358;2.122;2022-11-15T00:21:14;10.73;;;3.28;;
75454;SDS011;64035;48.358;2.122;2022-11-15T00:22:18;9.15;;;2.95;;
75454;SDS011;64035;48.358;2.122;2022-11-15T00:23:21;8.07;;;2.72;;
75454;SDS011;64035;48.358;2.122;2022-11-15T00:24:25;8.80;;;2.70;;
75454;SDS011;64035;48.358;2.122;2022-11-15T00:25:25;8.52;;;2.90;;
75454;SDS011;64035;48.358;2.122;2022-11-15T00:26:29;8.93;;;3.05;;
75454;SDS011;64035;48.358;2.122;2022-11-15T00:27:32;8.25;;;2.78;;
75454;SDS011;64035;48.358;2.122;2022-11-15T00:28:44;9.38;;;2.20;;
75454;SDS011;64035;48.358;2.122;2022-11-15T00:29:44;7.18;;;2.30;;
75454;SDS011;64035;48.358;2.122;2022-11-15T00:30:50;8.55;;;2.75;;
75454;SDS011;64035;48.358;2.122;2022-11-15T00:31:50;8.25;;;2.42;;
75454;SDS011;64035;48.358;2.122;2022-11-15T00:32:51;11.75;;;2.40;;
75454;SDS011;64035;48.358;2.122;2022-11-15T00:33:51;7.82;;;2.45;;
75454;SDS011;64035;48.358;2.122;2022-11-15T00:34:51;6.20;;;2.05;;
75454;SDS011;64035;48.358;2.122;2022-11-15T00:36:02;8.30;;;2.28;;
75454;SDS011;64035;48.358;2.122;2022-11-15T00:37:14;7.57;;;2.30;;
75454;SDS011;64035;48.358;2.122;2022-11-15T00:38:14;8.00;;;2.10;;
75454;SDS011;64035;48.358;2.122;2022-11-15T00:39:15;8.07;;;2.10;;
75454;SDS011;64035;48.358;2.122;2022-11-15T00:40:18;7.43;;;2.22;;
75454;SDS011;64035;48.358;2.122;2022-11-15T00:41:19;7.80;;;2.38;;
75454;SDS011;64035;48.358;2.122;2022-11-15T00:42:24;6.30;;;1.83;;
75454;SDS011;64035;48.358;2.122;2022-11-15T00:43:33;9.38;;;2.00;;
75454;SDS011;64035;48.358;2.122;2022-11-15T00:44:44;6.53;;;1.98;;
75454;SDS011;64035;48.358;2.122;2022-11-15T00:45:47;5.63;;;1.77;;
75454;SDS011;64035;48.358;2.122;2022-11-15T00:46:47;8.82;;;2.45;;
75454;SDS011;64035;48.358;2.122;2022-11-15T00:47:52;8.43;;;2.17;;
75454;SDS011;64035;48.358;2.122;2022-11-15T00:48:56;8.25;;;2.42;;
75454;SDS011;64035;48.358;2.122;2022-11-15T00:50:06;8.60;;;1.90;;
75454;SDS011;64035;48.358;2.122;2022-11-15T00:51:09;5.47;;;1.60;;
75454;SDS011;64035;48.358;2.122;2022-11-15T00:52:13;7.28;;;2.10;;
75454;SDS011;64035;48.358;2.122;2022-11-15T00:53:24;8.85;;;2.38;;
75454;SDS011;64035;48.358;2.122;2022-11-15T00:54:32;6.97;;;1.67;;
75454;SDS011;64035;48.358;2.122;2022-11-15T00:55:32;7.88;;;2.03;;
75454;SDS011;64035;48.358;2.122;2022-11-15T00:56:33;7.05;;;1.83;;
75454;SDS011;64035;48.358;2.122;2022-11-15T00:57:35;6.35;;;1.98;;
75454;SDS011;64035;48.358;2.122;2022-11-15T00:58:46;5.45;;;1.70;;
75454;SDS011;64035;48.358;2.122;2022-11-15T00:59:49;5.38;;;2.03;;
75454;SDS011;64035;48.358;2.122;2022-11-15T01:00:52;7.70;;;2.00;;
75454;SDS011;64035;48.358;2.122;2022-11-15T01:01:57;5.35;;;1.55;;
75454;SDS011;64035;48.358;2.122;2022-11-15T01:03:08;6.20;;;1.85;;
75454;SDS011;64035;48.358;2.122;2022-11-15T01:04:09;5.75;;;1.83;;
75454;SDS011;64035;48.358;2.122;2022-11-15T01:05:09;6.78;;;1.90;;
75454;SDS011;64035;48.358;2.122;2022-11-15T01:06:20;6.32;;;2.08;;
75454;SDS011;64035;48.358;2.122;2022-11-15T01:07:21;6.22;;;1.67;;
75454;SDS011;64035;48.358;2.122;2022-11-15T01:08:31;7.88;;;1.95;;
75454;SDS011;64035;48.358;2.122;2022-11-15T01:09:39;6.40;;;1.75;;
75454;SDS011;64035;48.358;2.122;2022-11-15T01:10:40;9.55;;;1.90;;
75454;SDS011;64035;48.358;2.122;2022-11-15T01:11:43;8.05;;;2.00;;
75454;SDS011;64035;48.358;2.122;2022-11-15T01:12:44;6.35;;;1.55;;
75454;SDS011;64035;48.358;2.122;2022-11-15T01:13:55;7.15;;;1.70;;
75454;SDS011;64035;48.358;2.122;2022-11-15T01:14:55;6.03;;;1.80;;
75454;SDS011;64035;48.358;2.122;2022-11-15T01:15:56;6.07;;;1.85;;
75454;SDS011;64035;48.358;2.122;2022-11-15T01:17:05;7.82;;;1.83;;
75454;SDS011;64035;48.358;2.122;2022-11-15T01:18:06;8.63;;;1.90;;
75454;SDS011;64035;48.358;2.122;2022-11-15T01:19:07;5.65;;;1.65;;
75454;SDS011;64035;48.358;2.122;2022-11-15T01:20:07;6.80;;;1.85;;
75454;SDS011;64035;48.358;2.122;2022-11-15T01:21:09;9.65;;;1.80;;
75454;SDS011;64035;48.358;2.122;2022-11-15T01:22:12;5.57;;;1.73;;
75454;SDS011;64035;48.358;2.122;2022-11-15T01:23:12;7.78;;;1.92;;
75454;SDS011;64035;48.358;2.122;2022-11-15T01:24:13;6.53;;;2.05;;
75454;SDS011;64035;48.358;2.122;2022-11-15T01:25:16;8.73;;;2.30;;
75454;SDS011;64035;48.358;2.122;2022-11-15T01:26:19;7.72;;;2.20;;
75454;SDS011;64035;48.358;2.122;2022-11-15T01:27:29;7.75;;;2.10;;
75454;SDS011;64035;48.358;2.122;2022-11-15T01:28:31;8.82;;;2.30;;
75454;SDS011;64035;48.358;2.122;2022-11-15T01:29:32;7.38;;;1.73;;
75454;SDS011;64035;48.358;2.122;2022-11-15T01:30:33;7.18;;;2.10;;
75454;SDS011;64035;48.358;2.122;2022-11-15T01:31:36;7.50;;;2.28;;
75454;SDS011;64035;48.358;2.122;2022-11-15T01:32:46;6.78;;;1.90;;
75454;SDS011;64035;48.358;2.122;2022-11-15T01:33:47;7.35;;;2.13;;
75454;SDS011;64035;48.358;2.122;2022-11-15T01:34:48;8.32;;;1.95;;
75454;SDS011;64035;48.358;2.122;2022-11-15T01:35:48;7.30;;;1.67;;
75454;SDS011;64035;48.358;2.122;2022-11-15T01:36:53;6.47;;;1.70;;
75454;SDS011;64035;48.358;2.122;2022-11-15T01:38:01;9.77;;;1.95;;
75454;SDS011;64035;48.358;2.122;2022-11-15T01:39:11;7.28;;;1.95;;
75454;SDS011;64035;48.358;2.122;2022-11-15T01:40:22;5.90;;;1.95;;
75454;SDS011;64035;48.358;2.122;2022-11-15T01:41:30;9.35;;;2.20;;
75454;SDS011;64035;48.358;2.122;2022-11-15T01:42:36;6.55;;;1.95;;
75454;SDS011;64035;48.358;2.122;2022-11-15T01:43:44;8.38;;;2.08;;
75454;SDS011;64035;48.358;2.122;2022-11-15T01:44:47;4.72;;;1.48;;
75454;SDS011;64035;48.358;2.122;2022-11-15T01:45:52;9.20;;;1.60;;
75454;SDS011;64035;48.358;2.122;2022-11-15T01:47:02;7.43;;;2.00;;
75454;SDS011;64035;48.358;2.122;2022-11-15T01:48:09;6.03;;;1.98;;
75454;SDS011;64035;48.358;2.122;2022-11-15T01:49:11;7.38;;;1.80;;
75454;SDS011;64035;48.358;2.122;2022-11-15T01:50:18;6.75;;;1.60;;
75454;SDS011;64035;48.358;2.122;2022-11-15T01:51:22;6.28;;;1.58;;
75454;SDS011;64035;48.358;2.122;2022-11-15T01:52:35;5.95;;;1.70;;
75454;SDS011;64035;48.358;2.122;2022-11-15T01:53:44;5.30;;;1.20;;
75454;SDS011;64035;48.358;2.122;2022-11-15T01:54:51;6.82;;;1.60;;
75454;SDS011;64035;48.358;2.122;2022-11-15T01:55:56;7.45;;;1.50;;
75454;SDS011;64035;48.358;2.122;2022-11-15T01:57:10;4.75;;;1.30;;
75454;SDS011;64035;48.358;2.122;2022-11-15T01:58:12;6.07;;;1.40;;
75454;SDS011;64035;48.358;2.122;2022-11-15T01:59:13;4.72;;;1.20;;
75454;SDS011;64035;48.358;2.122;2022-11-15T02:00:14;5.53;;;1.30;;
75454;SDS011;64035;48.358;2.122;2022-11-15T02:01:15;5.63;;;1.38;;
75454;SDS011;64035;48.358;2.122;2022-11-15T02:02:18;5.25;;;1.15;;
75454;SDS011;64035;48.358;2.122;2022-11-15T02:03:21;5.00;;;1.20;;
75454;SDS011;64035;48.358;2.122;2022-11-15T02:04:34;5.93;;;1.25;;
75454;SDS011;64035;48.358;2.122;2022-11-15T02:05:38;5.00;;;1.42;;
75454;SDS011;64035;48.358;2.122;2022-11-15T02:06:40;2.95;;;1.05;;
75454;SDS011;64035;48.358;2.122;2022-11-15T02:07:41;3.92;;;1.10;;
75454;SDS011;64035;48.358;2.122;2022-11-15T02:08:43;2.88;;;1.20;;
75454;SDS011;64035;48.358;2.122;2022-11-15T02:09:44;6.20;;;1.30;;
75454;SDS011;64035;48.358;2.122;2022-11-15T02:10:46;5.32;;;1.30;;
75454;SDS011;64035;48.358;2.122;2022-11-15T02:11:47;4.63;;;1.00;;
75454;SDS011;64035;48.358;2.122;2022-11-15T02:12:49;3.78;;;1.10;;
75454;SDS011;64035;48.358;2.122;2022-11-15T02:13:52;4.60;;;1.38;;
75454;SDS011;64035;48.358;2.122;2022-11-15T02:14:53;3.38;;;1.10;;
75454;SDS011;64035;48.358;2.122;2022-11-15T02:16:08;5.63;;;1.30;;
75454;SDS011;64035;48.358;2.122;2022-11-15T02:22:22;3.60;;;1.00;;
75454;SDS011;64035;48.358;2.122;2022-11-15T02:23:40;2.38;;;0.75;;
75454;SDS011;64035;48.358;2.122;2022-11-15T02:35:37;2.58;;;0.85;;
75454;SDS011;64035;48.358;2.122;2022-11-15T02:36:50;4.45;;;1.20;;
75454;SDS011;64035;48.358;2.122;2022-11-15T02:41:16;4.57;;;1.35;;
75454;SDS011;64035;48.358;2.122;2022-11-15T02:42:25;4.60;;;1.00;;
75454;SDS011;64035;48.358;2.122;2022-11-15T02:43:52;3.40;;;0.90;;
75454;SDS011;64035;48.358;2.122;2022-11-15T02:44:56;2.25;;;0.75;;
75454;SDS011;64035;48.358;2.122;2022-11-15T02:46:04;2.72;;;0.85;;
75454;SDS011;64035;48.358;2.122;2022-11-15T02:47:13;3.42;;;0.95;;
75454;SDS011;64035;48.358;2.122;2022-11-15T02:48:17;2.85;;;0.80;;
75454;SDS011;64035;48.358;2.122;2022-11-15T02:49:20;3.50;;;1.20;;
75454;SDS011;64035;48.358;2.122;2022-11-15T02:50:26;4.50;;;0.82;;
75454;SDS011;64035;48.358;2.122;2022-11-15T02:51:32;2.78;;;1.00;;
75454;SDS011;64035;48.358;2.122;2022-11-15T02:52:36;3.80;;;0.88;;
75454;SDS011;64035;48.358;2.122;2022-11-15T02:53:36;2.92;;;0.77;;
75454;SDS011;64035;48.358;2.122;2022-11-15T02:54:37;5.28;;;0.80;;
75454;SDS011;64035;48.358;2.122;2022-11-15T02:55:49;3.15;;;0.75;;
75454;SDS011;64035;48.358;2.122;2022-11-15T02:56:54;2.20;;;0.82;;
75454;SDS011;64035;48.358;2.122;2022-11-15T02:58:02;2.17;;;0.63;;
75454;SDS011;64035;48.358;2.122;2022-11-15T02:59:12;1.92;;;0.70;;
75454;SDS011;64035;48.358;2.122;2022-11-15T03:00:20;2.92;;;0.80;;
75454;SDS011;64035;48.358;2.122;2022-11-15T03:01:25;4.68;;;1.02;;
75454;SDS011;64035;48.358;2.122;2022-11-15T03:04:02;1.65;;;0.60;;
75454;SDS011;64035;48.358;2.122;2022-11-15T03:06:52;4.82;;;0.73;;
75454;SDS011;64035;48.358;2.122;2022-11-15T03:09:28;1.63;;;0.52;;
75454;SDS011;64035;48.358;2.122;2022-11-15T03:11:10;1.85;;;0.85;;
75454;SDS011;64035;48.358;2.122;2022-11-15T03:13:26;3.70;;;1.00;;
75454;SDS011;64035;48.358;2.122;2022-11-15T03:16:11;4.68;;;0.80;;
75454;SDS011;64035;48.358;2.122;2022-11-15T03:17:16;1.90;;;0.50;;
75454;SDS011;64035;48.358;2.122;2022-11-15T03:18:36;2.20;;;0.60;;
75454;SDS011;64035;48.358;2.122;2022-11-15T03:19:47;1.55;;;0.70;;
75454;SDS011;64035;48.358;2.122;2022-11-15T03:20:50;2.33;;;0.70;;
75454;SDS011;64035;48.358;2.122;2022-11-15T03:21:51;2.90;;;0.60;;
75454;SDS011;64035;48.358;2.122;2022-11-15T03:23:00;4.50;;;1.00;;
75454;SDS011;64035;48.358;2.122;2022-11-15T03:24:06;2.33;;;0.80;;
75454;SDS011;64035;48.358;2.122;2022-11-15T03:25:09;2.47;;;0.70;;
75454;SDS011;64035;48.358;2.122;2022-11-15T03:26:14;5.35;;;0.57;;
75454;SDS011;64035;48.358;2.122;2022-11-15T03:27:20;1.88;;;0.65;;
75454;SDS011;64035;48.358;2.122;2022-11-15T03:28:24;1.77;;;0.60;;
75454;SDS011;64035;48.358;2.122;2022-11-15T03:29:49;3.22;;;0.93;;
75454;SDS011;64035;48.358;2.122;2022-11-15T03:30:53;2.70;;;0.70;;
75454;SDS011;64035;48.358;2.122;2022-11-15T03:32:00;1.73;;;0.60;;
75454;SDS011;64035;48.358;2.122;2022-11-15T03:34:09;1.58;;;0.52;;
75454;SDS011;64035;48.358;2.122;2022-11-15T03:35:15;1.42;;;0.57;;
75454;SDS011;64035;48.358;2.122;2022-11-15T03:36:21;2.85;;;0.68;;
75454;SDS011;64035;48.358;2.122;2022-11-15T03:38:30;1.38;;;0.68;;
75454;SDS011;64035;48.358;2.122;2022-11-15T03:39:34;3.38;;;0.80;;
75454;SDS011;64035;48.358;2.122;2022-11-15T03:40:41;2.47;;;0.70;;
75454;SDS011;64035;48.358;2.122;2022-11-15T03:43:05;4.10;;;1.02;;
75454;SDS011;64035;48.358;2.122;2022-11-15T03:44:31;1.77;;;0.80;;
75454;SDS011;64035;48.358;2.122;2022-11-15T03:45:43;3.92;;;1.00;;
75454;SDS011;64035;48.358;2.122;2022-11-15T03:48:20;3.10;;;0.93;;
75454;SDS011;64035;48.358;2.122;2022-11-15T03:49:25;1.83;;;0.63;;
75454;SDS011;64035;48.358;2.122;2022-11-15T03:50:34;3.20;;;0.70;;
75454;SDS011;64035;48.358;2.122;2022-11-15T03:51:34;1.38;;;0.60;;
75454;SDS011;64035;48.358;2.122;2022-11-15T03:52:35;3.28;;;0.82;;
75454;SDS011;64035;48.358;2.122;2022-11-15T03:53:37;3.22;;;1.10;;
75454;SDS011;64035;48.358;2.122;2022-11-15T03:54:47;2.28;;;0.38;;
75454;SDS011;64035;48.358;2.122;2022-11-15T03:55:49;4.07;;;0.90;;
75454;SDS011;64035;48.358;2.122;2022-11-15T03:56:49;4.10;;;0.63;;
75454;SDS011;64035;48.358;2.122;2022-11-15T03:57:51;3.35;;;0.70;;
75454;SDS011;64035;48.358;2.122;2022-11-15T03:58:55;3.72;;;0.77;;
75454;SDS011;64035;48.358;2.122;2022-11-15T03:59:55;3.42;;;0.98;;
75454;SDS011;64035;48.358;2.122;2022-11-15T04:01:01;1.45;;;0.85;;
75454;SDS011;64035;48.358;2.122;2022-11-15T04:02:04;4.07;;;0.57;;
75454;SDS011;64035;48.358;2.122;2022-11-15T04:03:05;2.25;;;0.63;;
75454;SDS011;64035;48.358;2.122;2022-11-15T04:04:08;2.28;;;0.60;;
75454;SDS011;64035;48.358;2.122;2022-11-15T04:05:09;2.72;;;0.52;;
75454;SDS011;64035;48.358;2.122;2022-11-15T04:06:09;2.80;;;0.90;;
75454;SDS011;64035;48.358;2.122;2022-11-15T04:07:10;2.53;;;0.93;;
75454;SDS011;64035;48.358;2.122;2022-11-15T04:08:11;4.60;;;0.85;;
75454;SDS011;64035;48.358;2.122;2022-11-15T04:09:11;1.73;;;0.73;;
75454;SDS011;64035;48.358;2.122;2022-11-15T04:10:12;4.50;;;0.80;;
75454;SDS011;64035;48.358;2.122;2022-11-15T04:11:12;2.85;;;0.70;;
75454;SDS011;64035;48.358;2.122;2022-11-15T04:12:13;1.23;;;0.57;;
75454;SDS011;64035;48.358;2.122;2022-11-15T04:13:30;1.77;;;0.60;;
75454;SDS011;64035;48.358;2.122;2022-11-15T04:14:31;2.80;;;0.82;;
75454;SDS011;64035;48.358;2.122;2022-11-15T04:15:31;1.85;;;0.63;;
75454;SDS011;64035;48.358;2.122;2022-11-15T04:16:31;2.30;;;0.75;;
75454;SDS011;64035;48.358;2.122;2022-11-15T04:17:33;4.18;;;0.77;;
75454;SDS011;64035;48.358;2.122;2022-11-15T04:18:40;1.85;;;0.63;;
75454;SDS011;64035;48.358;2.122;2022-11-15T04:19:41;3.65;;;0.82;;
75454;SDS011;64035;48.358;2.122;2022-11-15T04:20:59;2.30;;;0.80;;
75454;SDS011;64035;48.358;2.122;2022-11-15T04:22:18;2.75;;;0.65;;
75454;SDS011;64035;48.358;2.122;2022-11-15T04:23:37;6.22;;;0.93;;
75454;SDS011;64035;48.358;2.122;2022-11-15T04:24:53;4.05;;;0.90;;
75454;SDS011;64035;48.358;2.122;2022-11-15T04:25:54;3.58;;;0.98;;
75454;SDS011;64035;48.358;2.122;2022-11-15T04:26:56;2.63;;;0.60;;
75454;SDS011;64035;48.358;2.122;2022-11-15T04:27:56;1.30;;;0.75;;
75454;SDS011;64035;48.358;2.122;2022-11-15T04:28:57;1.02;;;0.60;;
75454;SDS011;64035;48.358;2.122;2022-11-15T04:30:15;1.65;;;0.57;;
75454;SDS011;64035;48.358;2.122;2022-11-15T04:31:16;1.90;;;0.60;;
75454;SDS011;64035;48.358;2.122;2022-11-15T04:32:16;1.40;;;0.57;;
75454;SDS011;64035;48.358;2.122;2022-11-15T04:33:17;2.20;;;0.65;;
75454;SDS011;64035;48.358;2.122;2022-11-15T04:34:18;3.28;;;0.88;;
75454;SDS011;64035;48.358;2.122;2022-11-15T04:35:18;2.58;;;0.60;;
75454;SDS011;64035;48.358;2.122;2022-11-15T04:36:19;3.75;;;1.00;;
75454;SDS011;64035;48.358;2.122;2022-11-15T04:37:38;1.65;;;0.47;;
75454;SDS011;64035;48.358;2.122;2022-11-15T04:38:38;2.05;;;0.63;;
75454;SDS011;64035;48.358;2.122;2022-11-15T04:39:42;2.53;;;0.77;;
75454;SDS011;64035;48.358;2.122;2022-11-15T04:40:43;2.53;;;0.77;;
75454;SDS011;64035;48.358;2.122;2022-11-15T04:41:43;3.03;;;0.98;;
75454;SDS011;64035;48.358;2.122;2022-11-15T04:42:44;3.78;;;0.90;;
75454;SDS011;64035;48.358;2.122;2022-11-15T04:43:44;1.30;;;0.70;;
75454;SDS011;64035;48.358;2.122;2022-11-15T04:44:45;4.97;;;0.77;;
75454;SDS011;64035;48.358;2.122;2022-11-15T04:45:48;3.65;;;0.90;;
75454;SDS011;64035;48.358;2.122;2022-11-15T04:46:49;4.53;;;1.00;;
75454;SDS011;64035;48.358;2.122;2022-11-15T04:47:52;2.72;;;0.73;;
75454;SDS011;64035;48.358;2.122;2022-11-15T04:48:53;2.83;;;0.80;;
75454;SDS011;64035;48.358;2.122;2022-11-15T04:49:54;1.85;;;0.60;;
75454;SDS011;64035;48.358;2.122;2022-11-15T04:50:55;6.18;;;1.33;;
75454;SDS011;64035;48.358;2.122;2022-11-15T04:51:55;3.55;;;0.70;;
75454;SDS011;64035;48.358;2.122;2022-11-15T04:52:56;2.88;;;0.80;;
75454;SDS011;64035;48.358;2.122;2022-11-15T04:53:56;2.72;;;0.82;;
75454;SDS011;64035;48.358;2.122;2022-11-15T04:55:00;2.72;;;0.68;;
75454;SDS011;64035;48.358;2.122;2022-11-15T04:56:03;2.70;;;0.60;;
75454;SDS011;64035;48.358;2.122;2022-11-15T04:57:04;2.88;;;0.98;;
75454;SDS011;64035;48.358;2.122;2022-11-15T04:58:04;2.80;;;0.70;;
75454;SDS011;64035;48.358;2.122;2022-11-15T04:59:05;1.33;;;0.60;;
75454;SDS011;64035;48.358;2.122;2022-11-15T05:00:09;3.45;;;0.90;;
75454;SDS011;64035;48.358;2.122;2022-11-15T05:01:18;3.00;;;0.63;;
75454;SDS011;64035;48.358;2.122;2022-11-15T05:02:18;1.75;;;0.73;;
75454;SDS011;64035;48.358;2.122;2022-11-15T05:03:19;3.13;;;0.80;;
75454;SDS011;64035;48.358;2.122;2022-11-15T05:04:37;1.17;;;0.60;;
75454;SDS011;64035;48.358;2.122;2022-11-15T05:05:38;2.85;;;0.85;;
75454;SDS011;64035;48.358;2.122;2022-11-15T05:06:38;3.20;;;0.70;;
75454;SDS011;64035;48.358;2.122;2022-11-15T05:07:39;2.05;;;0.60;;
75454;SDS011;64035;48.358;2.122;2022-11-15T05:08:39;1.52;;;0.60;;
75454;SDS011;64035;48.358;2.122;2022-11-15T05:09:39;2.58;;;1.00;;
75454;SDS011;64035;48.358;2.122;2022-11-15T05:10:40;4.07;;;1.00;;
75454;SDS011;64035;48.358;2.122;2022-11-15T05:11:40;2.13;;;0.77;;
75454;SDS011;64035;48.358;2.122;2022-11-15T05:12:43;2.45;;;0.75;;
75454;SDS011;64035;48.358;2.122;2022-11-15T05:13:44;3.78;;;0.90;;
75454;SDS011;64035;48.358;2.122;2022-11-15T05:14:44;2.15;;;0.80;;
75454;SDS011;64035;48.358;2.122;2022-11-15T05:15:45;2.65;;;0.90;;
75454;SDS011;64035;48.358;2.122;2022-11-15T05:16:45;2.83;;;0.80;;
75454;SDS011;64035;48.358;2.122;2022-11-15T05:17:48;2.75;;;0.70;;
75454;SDS011;64035;48.358;2.122;2022-11-15T05:18:54;3.00;;;0.80;;
75454;SDS011;64035;48.358;2.122;2022-11-15T05:19:55;3.22;;;0.77;;
75454;SDS011;64035;48.358;2.122;2022-11-15T05:21:04;4.25;;;1.00;;
75454;SDS011;64035;48.358;2.122;2022-11-15T05:22:09;1.58;;;0.73;;
75454;SDS011;64035;48.358;2.122;2022-11-15T05:23:14;2.83;;;0.90;;
75454;SDS011;64035;48.358;2.122;2022-11-15T05:24:17;6.82;;;0.88;;
75454;SDS011;64035;48.358;2.122;2022-11-15T05:25:21;2.67;;;0.90;;
75454;SDS011;64035;48.358;2.122;2022-11-15T05:26:21;2.20;;;0.80;;
75454;SDS011;64035;48.358;2.122;2022-11-15T05:27:24;2.65;;;0.85;;
75454;SDS011;64035;48.358;2.122;2022-11-15T05:28:30;2.88;;;0.57;;
75454;SDS011;64035;48.358;2.122;2022-11-15T05:29:33;4.57;;;1.10;;
75454;SDS011;64035;48.358;2.122;2022-11-15T05:30:33;1.02;;;0.60;;
75454;SDS011;64035;48.358;2.122;2022-11-15T05:31:34;3.55;;;0.70;;
75454;SDS011;64035;48.358;2.122;2022-11-15T05:32:42;5.63;;;0.90;;
75454;SDS011;64035;48.358;2.122;2022-11-15T05:33:48;1.67;;;0.73;;
75454;SDS011;64035;48.358;2.122;2022-11-15T05:34:51;3.67;;;0.90;;
75454;SDS011;64035;48.358;2.122;2022-11-15T05:35:54;2.90;;;0.73;;
75454;SDS011;64035;48.358;2.122;2022-11-15T05:37:00;0.80;;;0.52;;
75454;SDS011;64035;48.358;2.122;2022-11-15T05:38:04;1.52;;;0.52;;
75454;SDS011;64035;48.358;2.122;2022-11-15T05:39:07;1.80;;;0.75;;
75454;SDS011;64035;48.358;2.122;2022-11-15T05:40:08;1.58;;;0.70;;
75454;SDS011;64035;48.358;2.122;2022-11-15T05:41:08;3.80;;;0.70;;
75454;SDS011;64035;48.358;2.122;2022-11-15T05:42:15;3.60;;;0.80;;
75454;SDS011;64035;48.358;2.122;2022-11-15T05:43:21;2.38;;;0.68;;
75454;SDS011;64035;48.358;2.122;2022-11-15T05:44:32;1.23;;;0.80;;
75454;SDS011;64035;48.358;2.122;2022-11-15T05:45:33;3.25;;;0.80;;
75454;SDS011;64035;48.358;2.122;2022-11-15T05:46:35;1.25;;;0.82;;
75454;SDS011;64035;48.358;2.122;2022-11-15T05:47:41;3.53;;;0.70;;
75454;SDS011;64035;48.358;2.122;2022-11-15T05:48:43;2.15;;;0.93;;
75454;SDS011;64035;48.358;2.122;2022-11-15T05:49:47;1.35;;;0.80;;
75454;SDS011;64035;48.358;2.122;2022-11-15T05:50:52;5.75;;;1.00;;
75454;SDS011;64035;48.358;2.122;2022-11-15T05:51:53;1.20;;;0.70;;
75454;SDS011;64035;48.358;2.122;2022-11-15T05:52:56;3.22;;;0.85;;
75454;SDS011;64035;48.358;2.122;2022-11-15T05:53:57;3.00;;;0.70;;
75454;SDS011;64035;48.358;2.122;2022-11-15T05:55:06;3.17;;;1.00;;
75454;SDS011;64035;48.358;2.122;2022-11-15T05:56:11;4.00;;;0.90;;
75454;SDS011;64035;48.358;2.122;2022-11-15T05:57:12;4.13;;;0.93;;
75454;SDS011;64035;48.358;2.122;2022-11-15T05:58:13;5.30;;;1.00;;
75454;SDS011;64035;48.358;2.122;2022-11-15T05:59:13;2.55;;;1.00;;
75454;SDS011;64035;48.358;2.122;2022-11-15T06:00:16;2.80;;;0.60;;
75454;SDS011;64035;48.358;2.122;2022-11-15T06:01:17;2.80;;;0.82;;
75454;SDS011;64035;48.358;2.122;2022-11-15T06:02:20;2.38;;;0.80;;
75454;SDS011;64035;48.358;2.122;2022-11-15T06:03:20;4.50;;;0.90;;
75454;SDS011;64035;48.358;2.122;2022-11-15T06:04:23;2.42;;;0.80;;
75454;SDS011;64035;48.358;2.122;2022-11-15T06:05:24;2.38;;;0.70;;
75454;SDS011;64035;48.358;2.122;2022-11-15T06:06:24;2.40;;;1.00;;
75454;SDS011;64035;48.358;2.122;2022-11-15T06:07:28;1.92;;;0.82;;
75454;SDS011;64035;48.358;2.122;2022-11-15T06:08:29;3.35;;;1.08;;
75454;SDS011;64035;48.358;2.122;2022-11-15T06:09:29;5.47;;;1.15;;
75454;SDS011;64035;48.358;2.122;2022-11-15T06:10:30;5.40;;;1.15;;
75454;SDS011;64035;48.358;2.122;2022-11-15T06:11:30;3.10;;;0.90;;
75454;SDS011;64035;48.358;2.122;2022-11-15T06:12:31;3.72;;;1.02;;
75454;SDS011;64035;48.358;2.122;2022-11-15T06:13:32;1.95;;;0.93;;
75454;SDS011;64035;48.358;2.122;2022-11-15T06:14:40;2.55;;;1.13;;
75454;SDS011;64035;48.358;2.122;2022-11-15T06:15:40;3.00;;;0.90;;
75454;SDS011;64035;48.358;2.122;2022-11-15T06:16:43;2.38;;;0.80;;
75454;SDS011;64035;48.358;2.122;2022-11-15T06:17:43;3.40;;;0.85;;
75454;SDS011;64035;48.358;2.122;2022-11-15T06:18:54;4.82;;;1.20;;
75454;SDS011;64035;48.358;2.122;2022-11-15T06:19:58;3.17;;;0.95;;
75454;SDS011;64035;48.358;2.122;2022-11-15T06:20:59;6.13;;;1.20;;
75454;SDS011;64035;48.358;2.122;2022-11-15T06:22:02;3.25;;;1.20;;
75454;SDS011;64035;48.358;2.122;2022-11-15T06:23:03;2.70;;;0.90;;
75454;SDS011;64035;48.358;2.122;2022-11-15T06:24:07;3.40;;;1.00;;
75454;SDS011;64035;48.358;2.122;2022-11-15T06:25:17;2.83;;;1.00;;
75454;SDS011;64035;48.358;2.122;2022-11-15T06:26:25;2.33;;;0.75;;
75454;SDS011;64035;48.358;2.122;2022-11-15T06:27:26;3.15;;;0.80;;
75454;SDS011;64035;48.358;2.122;2022-11-15T06:28:31;2.65;;;0.98;;
75454;SDS011;64035;48.358;2.122;2022-11-15T06:29:34;4.80;;;1.13;;
75454;SDS011;64035;48.358;2.122;2022-11-15T06:30:38;3.65;;;1.23;;
75454;SDS011;64035;48.358;2.122;2022-11-15T06:31:41;3.60;;;0.88;;
75454;SDS011;64035;48.358;2.122;2022-11-15T06:32:41;2.38;;;0.82;;
75454;SDS011;64035;48.358;2.122;2022-11-15T06:33:46;4.50;;;1.00;;
75454;SDS011;64035;48.358;2.122;2022-11-15T06:34:46;3.53;;;0.90;;
75454;SDS011;64035;48.358;2.122;2022-11-15T06:35:47;3.67;;;1.10;;
75454;SDS011;64035;48.358;2.122;2022-11-15T06:36:47;4.60;;;1.20;;
75454;SDS011;64035;48.358;2.122;2022-11-15T06:37:48;3.67;;;1.05;;
75454;SDS011;64035;48.358;2.122;2022-11-15T06:38:56;5.55;;;1.08;;
75454;SDS011;64035;48.358;2.122;2022-11-15T06:39:56;4.30;;;1.17;;
75454;SDS011;64035;48.358;2.122;2022-11-15T06:41:04;2.70;;;0.90;;
75454;SDS011;64035;48.358;2.122;2022-11-15T06:42:07;6.32;;;1.23;;
75454;SDS011;64035;48.358;2.122;2022-11-15T06:43:11;4.57;;;1.45;;
75454;SDS011;64035;48.358;2.122;2022-11-15T06:44:14;6.38;;;1.50;;
75454;SDS011;64035;48.358;2.122;2022-11-15T06:45:17;6.05;;;1.52;;
75454;SDS011;64035;48.358;2.122;2022-11-15T06:46:18;3.67;;;1.38;;
75454;SDS011;64035;48.358;2.122;2022-11-15T06:47:21;4.35;;;1.48;;
75454;SDS011;64035;48.358;2.122;2022-11-15T06:48:29;5.13;;;1.70;;
75454;SDS011;64035;48.358;2.122;2022-11-15T06:50:33;4.65;;;1.40;;
75454;SDS011;64035;48.358;2.122;2022-11-15T06:51:36;5.40;;;1.30;;
75454;SDS011;64035;48.358;2.122;2022-11-15T06:52:37;6.40;;;1.75;;
75454;SDS011;64035;48.358;2.122;2022-11-15T06:53:37;5.40;;;1.30;;
75454;SDS011;64035;48.358;2.122;2022-11-15T06:54:38;4.45;;;1.35;;
75454;SDS011;64035;48.358;2.122;2022-11-15T06:55:38;5.63;;;1.40;;
75454;SDS011;64035;48.358;2.122;2022-11-15T06:56:46;3.53;;;1.20;;
75454;SDS011;64035;48.358;2.122;2022-11-15T06:57:49;2.90;;;1.33;;
75454;SDS011;64035;48.358;2.122;2022-11-15T06:58:51;6.32;;;1.33;;
75454;SDS011;64035;48.358;2.122;2022-11-15T06:59:52;2.85;;;1.20;;
75454;SDS011;64035;48.358;2.122;2022-11-15T07:00:59;5.20;;;1.30;;